sensor_id;sensor_type;location;lat;lon;timestamp;P1;durP1;ratioP1;P2;durP2;ratioP2
5042;SDS011;2540;50.928;6.856;2022-11-15T00:02:16;10.03;;;6.43;;
5042;SDS011;2540;50.928;6.856;2022-11-15T00:04:42;11.40;;;6.40;;
5042;SDS011;2540;50.928;6.856;2022-11-15T00:07:07;13.67;;;7.10;;
5042;SDS011;2540;50.928;6.856;2022-11-15T00:09:32;11.70;;;6.70;;
5042;SDS011;2540;50.928;6.856;2022-11-15T00:11:57;11.13;;;6.60;;
5042;SDS011;2540;50.928;6.856;2022-11-15T00:14:22;12.10;;;6.60;;
5042;SDS011;2540;50.928;6.856;2022-11-15T00:16:47;15.23;;;7.90;;
5042;SDS011;2540;50.928;6.856;2022-11-15T00:19:13;13.17;;;6.70;;
5042;SDS011;2540;50.928;6.856;2022-11-15T00:21:38;16.53;;;7.97;;
5042;SDS011;2540;50.928;6.856;2022-11-15T00:24:03;11.60;;;7.00;;
5042;SDS011;2540;50.928;6.856;2022-11-15T00:26:29;12.47;;;7.13;;
5042;SDS011;2540;50.928;6.856;2022-11-15T00:28:54;11.00;;;6.30;;
5042;SDS011;2540;50.928;6.856;2022-11-15T00:31:19;12.50;;;6.40;;
5042;SDS011;2540;50.928;6.856;2022-11-15T00:33:44;11.47;;;6.80;;
5042;SDS011;2540;50.928;6.856;2022-11-15T00:36:10;13.73;;;7.17;;
5042;SDS011;2540;50.928;6.856;2022-11-15T00:38:36;9.30;;;6.37;;
5042;SDS011;2540;50.928;6.856;2022-11-15T00:41:02;11.03;;;6.30;;
5042;SDS011;2540;50.928;6.856;2022-11-15T00:43:28;15.43;;;7.10;;
5042;SDS011;2540;50.928;6.856;2022-11-15T00:45:53;15.27;;;7.40;;
5042;SDS011;2540;50.928;6.856;2022-11-15T00:48:19;10.47;;;6.70;;
5042;SDS011;2540;50.928;6.856;2022-11-15T00:50:44;10.47;;;6.73;;
5042;SDS011;2540;50.928;6.856;2022-11-15T00:53:10;10.40;;;6.20;;
5042;SDS011;2540;50.928;6.856;2022-11-15T00:55:35;11.00;;;6.43;;
5042;SDS011;2540;50.928;6.856;2022-11-15T00:58:00;22.13;;;6.60;;
5042;SDS011;2540;50.928;6.856;2022-11-15T01:00:25;10.80;;;6.83;;
5042;SDS011;2540;50.928;6.856;2022-11-15T01:02:50;12.10;;;6.73;;
5042;SDS011;2540;50.928;6.856;2022-11-15T01:05:15;10.67;;;6.67;;
5042;SDS011;2540;50.928;6.856;2022-11-15T01:07:41;10.57;;;5.67;;
5042;SDS011;2540;50.928;6.856;2022-11-15T01:10:06;10.03;;;6.87;;
5042;SDS011;2540;50.928;6.856;2022-11-15T01:12:32;9.33;;;5.30;;
5042;SDS011;2540;50.928;6.856;2022-11-15T01:14:57;12.87;;;5.63;;
5042;SDS011;2540;50.928;6.856;2022-11-15T01:17:22;15.40;;;6.07;;
5042;SDS011;2540;50.928;6.856;2022-11-15T01:19:47;12.43;;;6.33;;
5042;SDS011;2540;50.928;6.856;2022-11-15T01:22:12;11.73;;;5.97;;
5042;SDS011;2540;50.928;6.856;2022-11-15T01:24:37;13.33;;;6.70;;
5042;SDS011;2540;50.928;6.856;2022-11-15T01:27:03;10.60;;;6.67;;
5042;SDS011;2540;50.928;6.856;2022-11-15T01:29:28;9.60;;;6.50;;
5042;SDS011;2540;50.928;6.856;2022-11-15T01:31:53;12.47;;;6.30;;
5042;SDS011;2540;50.928;6.856;2022-11-15T01:34:18;14.47;;;6.70;;
5042;SDS011;2540;50.928;6.856;2022-11-15T01:36:44;12.90;;;6.30;;
5042;SDS011;2540;50.928;6.856;2022-11-15T01:39:09;14.80;;;8.00;;
5042;SDS011;2540;50.928;6.856;2022-11-15T01:41:34;15.47;;;7.23;;
5042;SDS011;2540;50.928;6.856;2022-11-15T01:46:44;17.40;;;7.67;;
5042;SDS011;2540;50.928;6.856;2022-11-15T01:49:12;14.30;;;7.60;;
5042;SDS011;2540;50.928;6.856;2022-11-15T01:51:38;15.23;;;8.13;;
5042;SDS011;2540;50.928;6.856;2022-11-15T01:54:04;18.73;;;8.10;;
5042;SDS011;2540;50.928;6.856;2022-11-15T01:56:31;13.20;;;7.50;;
5042;SDS011;2540;50.928;6.856;2022-11-15T01:58:58;17.13;;;7.30;;
5042;SDS011;2540;50.928;6.856;2022-11-15T02:01:25;16.90;;;6.90;;
5042;SDS011;2540;50.928;6.856;2022-11-15T02:04:02;13.07;;;7.23;;
5042;SDS011;2540;50.928;6.856;2022-11-15T02:06:29;17.30;;;7.10;;
5042;SDS011;2540;50.928;6.856;2022-11-15T02:08:54;17.40;;;7.33;;
5042;SDS011;2540;50.928;6.856;2022-11-15T02:11:19;12.57;;;7.67;;
5042;SDS011;2540;50.928;6.856;2022-11-15T02:13:44;10.30;;;6.40;;
5042;SDS011;2540;50.928;6.856;2022-11-15T02:18:57;9.97;;;5.77;;
5042;SDS011;2540;50.928;6.856;2022-11-15T02:26:47;15.23;;;7.10;;
5042;SDS011;2540;50.928;6.856;2022-11-15T02:29:19;12.93;;;6.90;;
5042;SDS011;2540;50.928;6.856;2022-11-15T02:32:03;14.77;;;6.77;;
5042;SDS011;2540;50.928;6.856;2022-11-15T02:34:35;12.00;;;6.80;;
5042;SDS011;2540;50.928;6.856;2022-11-15T02:42:09;12.25;;;6.57;;
5042;SDS011;2540;50.928;6.856;2022-11-15T02:44:56;10.10;;;5.90;;
5042;SDS011;2540;50.928;6.856;2022-11-15T02:47:22;12.37;;;6.50;;
5042;SDS011;2540;50.928;6.856;2022-11-15T02:49:49;16.33;;;6.83;;
5042;SDS011;2540;50.928;6.856;2022-11-15T02:52:19;10.97;;;5.70;;
5042;SDS011;2540;50.928;6.856;2022-11-15T02:54:54;12.07;;;6.60;;
5042;SDS011;2540;50.928;6.856;2022-11-15T02:57:22;11.20;;;6.50;;
5042;SDS011;2540;50.928;6.856;2022-11-15T02:59:59;11.90;;;6.27;;
5042;SDS011;2540;50.928;6.856;2022-11-15T03:10:07;15.93;;;5.90;;
5042;SDS011;2540;50.928;6.856;2022-11-15T03:12:46;9.93;;;5.90;;
5042;SDS011;2540;50.928;6.856;2022-11-15T03:15:17;7.50;;;5.60;;
5042;SDS011;2540;50.928;6.856;2022-11-15T03:20:38;13.70;;;7.60;;
5042;SDS011;2540;50.928;6.856;2022-11-15T03:23:04;11.07;;;6.47;;
5042;SDS011;2540;50.928;6.856;2022-11-15T03:25:32;12.87;;;6.93;;
5042;SDS011;2540;50.928;6.856;2022-11-15T03:27:58;13.30;;;6.43;;
5042;SDS011;2540;50.928;6.856;2022-11-15T03:30:26;11.00;;;5.80;;
5042;SDS011;2540;50.928;6.856;2022-11-15T03:32:56;7.50;;;6.10;;
5042;SDS011;2540;50.928;6.856;2022-11-15T03:35:22;9.60;;;6.33;;
5042;SDS011;2540;50.928;6.856;2022-11-15T03:37:55;9.83;;;6.03;;
5042;SDS011;2540;50.928;6.856;2022-11-15T03:40:24;11.77;;;6.90;;
5042;SDS011;2540;50.928;6.856;2022-11-15T03:45:36;10.03;;;5.97;;
5042;SDS011;2540;50.928;6.856;2022-11-15T03:48:20;12.67;;;5.90;;
5042;SDS011;2540;50.928;6.856;2022-11-15T03:50:46;9.83;;;6.00;;
5042;SDS011;2540;50.928;6.856;2022-11-15T03:53:12;9.33;;;5.63;;
5042;SDS011;2540;50.928;6.856;2022-11-15T03:55:37;10.33;;;6.03;;
5042;SDS011;2540;50.928;6.856;2022-11-15T03:58:02;9.20;;;6.37;;
5042;SDS011;2540;50.928;6.856;2022-11-15T04:00:28;9.90;;;5.77;;
5042;SDS011;2540;50.928;6.856;2022-11-15T04:02:53;10.93;;;5.23;;
5042;SDS011;2540;50.928;6.856;2022-11-15T04:05:18;15.03;;;5.63;;
5042;SDS011;2540;50.928;6.856;2022-11-15T04:07:44;11.00;;;5.70;;
5042;SDS011;2540;50.928;6.856;2022-11-15T04:10:10;8.43;;;5.00;;
5042;SDS011;2540;50.928;6.856;2022-11-15T04:12:36;13.00;;;5.93;;
5042;SDS011;2540;50.928;6.856;2022-11-15T04:15:21;8.40;;;5.00;;
5042;SDS011;2540;50.928;6.856;2022-11-15T04:17:48;10.23;;;5.20;;
5042;SDS011;2540;50.928;6.856;2022-11-15T04:22:58;14.87;;;5.93;;
5042;SDS011;2540;50.928;6.856;2022-11-15T04:25:42;11.47;;;6.10;;
5042;SDS011;2540;50.928;6.856;2022-11-15T04:28:07;22.87;;;8.30;;
5042;SDS011;2540;50.928;6.856;2022-11-15T04:30:32;9.50;;;6.10;;
5042;SDS011;2540;50.928;6.856;2022-11-15T04:32:58;14.43;;;5.60;;
5042;SDS011;2540;50.928;6.856;2022-11-15T04:35:23;22.00;;;8.77;;
5042;SDS011;2540;50.928;6.856;2022-11-15T04:37:48;11.33;;;6.40;;
5042;SDS011;2540;50.928;6.856;2022-11-15T04:40:13;14.10;;;6.70;;
5042;SDS011;2540;50.928;6.856;2022-11-15T04:42:40;10.67;;;6.43;;
5042;SDS011;2540;50.928;6.856;2022-11-15T04:45:05;11.60;;;6.07;;
5042;SDS011;2540;50.928;6.856;2022-11-15T04:47:31;10.43;;;6.13;;
5042;SDS011;2540;50.928;6.856;2022-11-15T04:49:56;10.80;;;6.70;;
5042;SDS011;2540;50.928;6.856;2022-11-15T04:52:21;15.83;;;6.83;;
5042;SDS011;2540;50.928;6.856;2022-11-15T04:54:46;8.83;;;5.73;;
5042;SDS011;2540;50.928;6.856;2022-11-15T04:57:11;8.67;;;5.80;;
5042;SDS011;2540;50.928;6.856;2022-11-15T04:59:36;8.00;;;5.10;;
5042;SDS011;2540;50.928;6.856;2022-11-15T05:02:02;7.47;;;4.63;;
5042;SDS011;2540;50.928;6.856;2022-11-15T05:04:27;12.33;;;7.47;;
5042;SDS011;2540;50.928;6.856;2022-11-15T05:06:52;8.77;;;5.63;;
5042;SDS011;2540;50.928;6.856;2022-11-15T05:09:18;8.87;;;5.87;;
5042;SDS011;2540;50.928;6.856;2022-11-15T05:11:43;13.87;;;6.40;;
5042;SDS011;2540;50.928;6.856;2022-11-15T05:14:08;12.00;;;6.20;;
5042;SDS011;2540;50.928;6.856;2022-11-15T05:16:34;11.03;;;6.53;;
5042;SDS011;2540;50.928;6.856;2022-11-15T05:18:59;15.73;;;8.80;;
5042;SDS011;2540;50.928;6.856;2022-11-15T05:21:24;14.97;;;6.63;;
5042;SDS011;2540;50.928;6.856;2022-11-15T05:23:49;12.10;;;6.40;;
5042;SDS011;2540;50.928;6.856;2022-11-15T05:26:15;9.20;;;5.93;;
5042;SDS011;2540;50.928;6.856;2022-11-15T05:28:41;11.73;;;6.03;;
5042;SDS011;2540;50.928;6.856;2022-11-15T05:31:07;15.10;;;6.37;;
5042;SDS011;2540;50.928;6.856;2022-11-15T05:33:33;17.33;;;6.63;;
5042;SDS011;2540;50.928;6.856;2022-11-15T05:38:43;12.53;;;6.10;;
5042;SDS011;2540;50.928;6.856;2022-11-15T05:41:08;12.60;;;6.63;;
5042;SDS011;2540;50.928;6.856;2022-11-15T05:43:34;9.90;;;6.13;;
5042;SDS011;2540;50.928;6.856;2022-11-15T05:46:00;13.77;;;7.10;;
5042;SDS011;2540;50.928;6.856;2022-11-15T05:48:27;12.40;;;5.87;;
5042;SDS011;2540;50.928;6.856;2022-11-15T05:50:52;13.50;;;6.80;;
5042;SDS011;2540;50.928;6.856;2022-11-15T05:53:18;14.20;;;6.90;;
5042;SDS011;2540;50.928;6.856;2022-11-15T05:55:44;10.23;;;5.40;;
5042;SDS011;2540;50.928;6.856;2022-11-15T05:58:09;9.63;;;6.10;;
5042;SDS011;2540;50.928;6.856;2022-11-15T06:00:34;11.13;;;6.47;;
5042;SDS011;2540;50.928;6.856;2022-11-15T06:03:00;11.63;;;5.70;;
5042;SDS011;2540;50.928;6.856;2022-11-15T06:05:25;8.27;;;5.07;;
5042;SDS011;2540;50.928;6.856;2022-11-15T06:07:50;10.67;;;5.80;;
5042;SDS011;2540;50.928;6.856;2022-11-15T06:10:15;12.23;;;7.47;;
5042;SDS011;2540;50.928;6.856;2022-11-15T06:12:41;9.13;;;6.33;;
5042;SDS011;2540;50.928;6.856;2022-11-15T06:15:06;8.20;;;5.70;;
5042;SDS011;2540;50.928;6.856;2022-11-15T06:17:31;4.63;;;4.10;;
5042;SDS011;2540;50.928;6.856;2022-11-15T06:19:56;6.53;;;5.00;;
5042;SDS011;2540;50.928;6.856;2022-11-15T06:22:21;10.07;;;4.90;;
5042;SDS011;2540;50.928;6.856;2022-11-15T06:24:47;6.30;;;4.73;;
5042;SDS011;2540;50.928;6.856;2022-11-15T06:27:12;6.97;;;4.60;;
5042;SDS011;2540;50.928;6.856;2022-11-15T06:29:37;8.93;;;5.40;;
5042;SDS011;2540;50.928;6.856;2022-11-15T06:32:02;7.50;;;4.97;;
5042;SDS011;2540;50.928;6.856;2022-11-15T06:34:28;7.80;;;4.57;;
5042;SDS011;2540;50.928;6.856;2022-11-15T06:36:53;8.97;;;4.60;;
5042;SDS011;2540;50.928;6.856;2022-11-15T06:39:18;5.13;;;4.10;;
5042;SDS011;2540;50.928;6.856;2022-11-15T06:41:43;6.33;;;4.43;;
5042;SDS011;2540;50.928;6.856;2022-11-15T06:44:08;9.77;;;4.30;;
5042;SDS011;2540;50.928;6.856;2022-11-15T06:46:34;7.43;;;4.33;;
5042;SDS011;2540;50.928;6.856;2022-11-15T06:48:59;8.47;;;4.17;;
5042;SDS011;2540;50.928;6.856;2022-11-15T06:51:24;10.00;;;4.30;;
5042;SDS011;2540;50.928;6.856;2022-11-15T06:53:49;7.40;;;4.00;;
5042;SDS011;2540;50.928;6.856;2022-11-15T06:56:14;5.97;;;3.17;;
5042;SDS011;2540;50.928;6.856;2022-11-15T06:58:40;6.37;;;3.83;;
5042;SDS011;2540;50.928;6.856;2022-11-15T07:01:06;10.93;;;4.10;;
5042;SDS011;2540;50.928;6.856;2022-11-15T07:03:31;4.43;;;3.67;;
5042;SDS011;2540;50.928;6.856;2022-11-15T07:05:58;10.00;;;4.00;;
5042;SDS011;2540;50.928;6.856;2022-11-15T07:08:24;10.07;;;4.00;;
5042;SDS011;2540;50.928;6.856;2022-11-15T07:10:51;6.70;;;4.07;;
5042;SDS011;2540;50.928;6.856;2022-11-15T07:13:16;7.70;;;3.90;;
5042;SDS011;2540;50.928;6.856;2022-11-15T07:15:41;7.80;;;3.97;;
5042;SDS011;2540;50.928;6.856;2022-11-15T07:18:07;6.23;;;4.13;;
5042;SDS011;2540;50.928;6.856;2022-11-15T07:20:32;13.50;;;3.80;;
5042;SDS011;2540;50.928;6.856;2022-11-15T07:23:00;7.77;;;3.90;;
5042;SDS011;2540;50.928;6.856;2022-11-15T07:25:26;4.60;;;3.47;;
5042;SDS011;2540;50.928;6.856;2022-11-15T07:27:58;8.00;;;3.47;;
5042;SDS011;2540;50.928;6.856;2022-11-15T07:30:23;10.20;;;3.40;;
5042;SDS011;2540;50.928;6.856;2022-11-15T07:32:55;6.07;;;3.67;;
5042;SDS011;2540;50.928;6.856;2022-11-15T07:35:21;3.83;;;3.00;;
5042;SDS011;2540;50.928;6.856;2022-11-15T07:38:19;4.37;;;2.70;;
5042;SDS011;2540;50.928;6.856;2022-11-15T07:40:39;3.03;;;2.70;;
5042;SDS011;2540;50.928;6.856;2022-11-15T07:43:05;3.57;;;2.47;;
5042;SDS011;2540;50.928;6.856;2022-11-15T07:45:31;4.43;;;2.77;;
5042;SDS011;2540;50.928;6.856;2022-11-15T07:47:56;4.30;;;2.90;;
5042;SDS011;2540;50.928;6.856;2022-11-15T07:50:24;4.23;;;2.40;;
5042;SDS011;2540;50.928;6.856;2022-11-15T07:52:54;1.57;;;1.47;;
5042;SDS011;2540;50.928;6.856;2022-11-15T07:55:20;2.27;;;1.73;;
5042;SDS011;2540;50.928;6.856;2022-11-15T07:57:45;2.60;;;1.80;;
5042;SDS011;2540;50.928;6.856;2022-11-15T08:00:10;3.33;;;2.10;;
5042;SDS011;2540;50.928;6.856;2022-11-15T08:02:36;4.77;;;1.73;;
5042;SDS011;2540;50.928;6.856;2022-11-15T08:05:01;4.17;;;1.67;;
5042;SDS011;2540;50.928;6.856;2022-11-15T08:07:28;3.00;;;1.60;;
5042;SDS011;2540;50.928;6.856;2022-11-15T08:09:53;4.10;;;1.60;;
5042;SDS011;2540;50.928;6.856;2022-11-15T08:12:19;2.10;;;1.57;;
5042;SDS011;2540;50.928;6.856;2022-11-15T08:14:45;1.53;;;1.43;;
5042;SDS011;2540;50.928;6.856;2022-11-15T08:17:10;3.03;;;1.90;;
5042;SDS011;2540;50.928;6.856;2022-11-15T08:19:35;2.10;;;1.90;;
5042;SDS011;2540;50.928;6.856;2022-11-15T08:22:00;3.17;;;1.40;;
5042;SDS011;2540;50.928;6.856;2022-11-15T08:24:25;1.83;;;1.67;;
5042;SDS011;2540;50.928;6.856;2022-11-15T08:26:51;2.70;;;1.60;;
5042;SDS011;2540;50.928;6.856;2022-11-15T08:29:16;7.90;;;1.97;;
5042;SDS011;2540;50.928;6.856;2022-11-15T08:31:41;3.70;;;2.40;;
5042;SDS011;2540;50.928;6.856;2022-11-15T08:34:06;6.57;;;4.00;;
5042;SDS011;2540;50.928;6.856;2022-11-15T08:36:32;8.97;;;4.20;;
5042;SDS011;2540;50.928;6.856;2022-11-15T08:38:57;3.90;;;2.87;;
5042;SDS011;2540;50.928;6.856;2022-11-15T08:41:26;4.60;;;3.40;;
5042;SDS011;2540;50.928;6.856;2022-11-15T08:43:52;7.10;;;3.10;;
5042;SDS011;2540;50.928;6.856;2022-11-15T08:46:17;6.37;;;3.40;;
5042;SDS011;2540;50.928;6.856;2022-11-15T08:48:43;4.47;;;2.87;;
5042;SDS011;2540;50.928;6.856;2022-11-15T08:51:09;4.87;;;2.53;;
5042;SDS011;2540;50.928;6.856;2022-11-15T08:53:34;7.20;;;3.07;;
5042;SDS011;2540;50.928;6.856;2022-11-15T08:55:59;3.73;;;2.73;;
5042;SDS011;2540;50.928;6.856;2022-11-15T08:58:24;8.03;;;3.43;;
5042;SDS011;2540;50.928;6.856;2022-11-15T09:00:49;4.00;;;2.60;;
5042;SDS011;2540;50.928;6.856;2022-11-15T09:03:15;5.40;;;2.47;;
5042;SDS011;2540;50.928;6.856;2022-11-15T09:05:40;2.97;;;2.00;;
5042;SDS011;2540;50.928;6.856;2022-11-15T09:08:05;5.80;;;1.97;;
5042;SDS011;2540;50.928;6.856;2022-11-15T09:10:30;6.90;;;2.30;;
5042;SDS011;2540;50.928;6.856;2022-11-15T09:12:58;1.90;;;1.63;;
5042;SDS011;2540;50.928;6.856;2022-11-15T09:15:24;3.33;;;1.50;;
5042;SDS011;2540;50.928;6.856;2022-11-15T09:17:49;4.63;;;1.63;;
5042;SDS011;2540;50.928;6.856;2022-11-15T09:20:14;2.93;;;1.50;;
5042;SDS011;2540;50.928;6.856;2022-11-15T09:22:39;4.20;;;1.60;;
5042;SDS011;2540;50.928;6.856;2022-11-15T09:25:05;2.30;;;1.43;;
5042;SDS011;2540;50.928;6.856;2022-11-15T09:27:31;8.50;;;1.80;;
5042;SDS011;2540;50.928;6.856;2022-11-15T09:29:56;2.00;;;1.63;;
5042;SDS011;2540;50.928;6.856;2022-11-15T09:32:22;7.13;;;1.63;;
5042;SDS011;2540;50.928;6.856;2022-11-15T09:34:48;1.97;;;1.53;;
5042;SDS011;2540;50.928;6.856;2022-11-15T09:37:13;5.63;;;1.37;;
5042;SDS011;2540;50.928;6.856;2022-11-15T09:39:38;3.97;;;1.80;;
5042;SDS011;2540;50.928;6.856;2022-11-15T09:42:07;3.43;;;1.97;;
5042;SDS011;2540;50.928;6.856;2022-11-15T09:44:39;4.70;;;2.00;;
5042;SDS011;2540;50.928;6.856;2022-11-15T09:49:52;5.63;;;2.03;;
5042;SDS011;2540;50.928;6.856;2022-11-15T09:52:19;6.17;;;1.73;;
5042;SDS011;2540;50.928;6.856;2022-11-15T09:54:46;4.43;;;1.77;;
5042;SDS011;2540;50.928;6.856;2022-11-15T09:57:13;3.27;;;1.70;;
5042;SDS011;2540;50.928;6.856;2022-11-15T10:04:41;2.10;;;1.00;;
5042;SDS011;2540;50.928;6.856;2022-11-15T10:12:23;1.23;;;1.07;;
5042;SDS011;2540;50.928;6.856;2022-11-15T10:14:50;1.63;;;0.70;;
5042;SDS011;2540;50.928;6.856;2022-11-15T10:19:56;1.48;;;0.73;;
5042;SDS011;2540;50.928;6.856;2022-11-15T10:22:27;3.23;;;0.77;;
5042;SDS011;2540;50.928;6.856;2022-11-15T10:27:33;0.87;;;0.80;;
5042;SDS011;2540;50.928;6.856;2022-11-15T10:29:58;0.67;;;0.67;;
5042;SDS011;2540;50.928;6.856;2022-11-15T10:32:24;0.63;;;0.63;;
5042;SDS011;2540;50.928;6.856;2022-11-15T10:34:50;4.07;;;0.70;;
5042;SDS011;2540;50.928;6.856;2022-11-15T10:37:26;0.80;;;0.80;;
5042;SDS011;2540;50.928;6.856;2022-11-15T10:40:05;3.57;;;0.87;;
5042;SDS011;2540;50.928;6.856;2022-11-15T10:42:30;2.40;;;0.87;;
5042;SDS011;2540;50.928;6.856;2022-11-15T10:44:56;1.30;;;0.70;;
5042;SDS011;2540;50.928;6.856;2022-11-15T10:49:53;0.90;;;0.70;;
5042;SDS011;2540;50.928;6.856;2022-11-15T10:52:18;4.10;;;0.90;;
5042;SDS011;2540;50.928;6.856;2022-11-15T10:54:45;2.93;;;0.83;;
5042;SDS011;2540;50.928;6.856;2022-11-15T10:57:13;1.80;;;0.70;;
5042;SDS011;2540;50.928;6.856;2022-11-15T10:59:39;1.13;;;0.77;;
5042;SDS011;2540;50.928;6.856;2022-11-15T11:04:51;7.80;;;0.90;;
5042;SDS011;2540;50.928;6.856;2022-11-15T11:07:24;5.90;;;0.90;;
5042;SDS011;2540;50.928;6.856;2022-11-15T11:09:56;3.23;;;0.93;;
5042;SDS011;2540;50.928;6.856;2022-11-15T11:12:26;0.70;;;0.67;;
5042;SDS011;2540;50.928;6.856;2022-11-15T11:14:52;1.90;;;0.70;;
5042;SDS011;2540;50.928;6.856;2022-11-15T11:17:21;1.47;;;0.70;;
5042;SDS011;2540;50.928;6.856;2022-11-15T11:27:26;2.60;;;0.90;;
5042;SDS011;2540;50.928;6.856;2022-11-15T11:32:40;3.13;;;0.90;;
5042;SDS011;2540;50.928;6.856;2022-11-15T11:35:23;3.50;;;0.70;;
5042;SDS011;2540;50.928;6.856;2022-11-15T11:45:27;0.87;;;0.87;;
5042;SDS011;2540;50.928;6.856;2022-11-15T11:50:24;1.43;;;0.73;;
5042;SDS011;2540;50.928;6.856;2022-11-15T11:52:58;2.27;;;0.80;;
5042;SDS011;2540;50.928;6.856;2022-11-15T11:55:34;4.83;;;1.20;;
5042;SDS011;2540;50.928;6.856;2022-11-15T12:00:38;1.07;;;0.70;;
5042;SDS011;2540;50.928;6.856;2022-11-15T12:03:09;3.23;;;1.10;;
5042;SDS011;2540;50.928;6.856;2022-11-15T12:08:09;1.90;;;0.70;;
5042;SDS011;2540;50.928;6.856;2022-11-15T12:10:40;1.80;;;0.80;;
5042;SDS011;2540;50.928;6.856;2022-11-15T12:13:10;1.10;;;0.77;;
5042;SDS011;2540;50.928;6.856;2022-11-15T12:15:39;2.93;;;0.70;;
5042;SDS011;2540;50.928;6.856;2022-11-15T12:18:07;4.40;;;1.10;;
5042;SDS011;2540;50.928;6.856;2022-11-15T12:20:34;1.10;;;0.77;;
5042;SDS011;2540;50.928;6.856;2022-11-15T12:24:03;2.37;;;1.10;;
5042;SDS011;2540;50.928;6.856;2022-11-15T12:26:06;1.17;;;1.07;;
5042;SDS011;2540;50.928;6.856;2022-11-15T12:28:40;0.77;;;0.70;;
5042;SDS011;2540;50.928;6.856;2022-11-15T12:33:48;2.20;;;0.90;;
5042;SDS011;2540;50.928;6.856;2022-11-15T12:41:19;3.03;;;0.87;;
5042;SDS011;2540;50.928;6.856;2022-11-15T12:43:45;4.73;;;1.73;;
5042;SDS011;2540;50.928;6.856;2022-11-15T12:46:11;1.07;;;0.93;;
5042;SDS011;2540;50.928;6.856;2022-11-15T12:51:02;8.27;;;1.27;;
5042;SDS011;2540;50.928;6.856;2022-11-15T12:53:29;2.40;;;1.13;;
5042;SDS011;2540;50.928;6.856;2022-11-15T12:58:42;2.67;;;1.03;;
5042;SDS011;2540;50.928;6.856;2022-11-15T13:01:08;1.50;;;1.03;;
5042;SDS011;2540;50.928;6.856;2022-11-15T13:03:33;4.40;;;1.00;;
5042;SDS011;2540;50.928;6.856;2022-11-15T13:06:00;1.87;;;1.63;;
5042;SDS011;2540;50.928;6.856;2022-11-15T13:08:35;5.80;;;1.00;;
5042;SDS011;2540;50.928;6.856;2022-11-15T13:11:27;2.03;;;1.03;;
5042;SDS011;2540;50.928;6.856;2022-11-15T13:13:45;5.73;;;1.33;;
5042;SDS011;2540;50.928;6.856;2022-11-15T13:16:11;2.10;;;1.10;;
5042;SDS011;2540;50.928;6.856;2022-11-15T13:18:42;2.83;;;1.23;;
5042;SDS011;2540;50.928;6.856;2022-11-15T13:21:23;6.00;;;1.13;;
5042;SDS011;2540;50.928;6.856;2022-11-15T13:24:12;6.00;;;1.43;;
5042;SDS011;2540;50.928;6.856;2022-11-15T13:26:38;1.77;;;1.50;;
5042;SDS011;2540;50.928;6.856;2022-11-15T13:29:04;4.73;;;1.83;;
5042;SDS011;2540;50.928;6.856;2022-11-15T13:31:42;2.20;;;1.40;;
5042;SDS011;2540;50.928;6.856;2022-11-15T13:34:28;2.20;;;1.63;;
5042;SDS011;2540;50.928;6.856;2022-11-15T13:36:54;3.93;;;2.10;;
5042;SDS011;2540;50.928;6.856;2022-11-15T13:41:50;1.50;;;1.40;;
5042;SDS011;2540;50.928;6.856;2022-11-15T13:44:23;4.67;;;1.80;;
5042;SDS011;2540;50.928;6.856;2022-11-15T13:46:50;2.80;;;1.93;;
5042;SDS011;2540;50.928;6.856;2022-11-15T13:49:28;4.57;;;1.80;;
5042;SDS011;2540;50.928;6.856;2022-11-15T13:51:53;5.03;;;1.80;;
5042;SDS011;2540;50.928;6.856;2022-11-15T13:56:58;2.87;;;1.90;;
5042;SDS011;2540;50.928;6.856;2022-11-15T13:59:28;7.90;;;2.20;;
5042;SDS011;2540;50.928;6.856;2022-11-15T14:01:54;5.30;;;1.93;;
5042;SDS011;2540;50.928;6.856;2022-11-15T14:04:20;1.97;;;1.77;;
5042;SDS011;2540;50.928;6.856;2022-11-15T14:06:50;3.43;;;2.00;;
5042;SDS011;2540;50.928;6.856;2022-11-15T14:09:37;2.20;;;2.00;;
5042;SDS011;2540;50.928;6.856;2022-11-15T14:14:45;1.50;;;1.40;;
5042;SDS011;2540;50.928;6.856;2022-11-15T14:17:20;10.43;;;2.37;;
5042;SDS011;2540;50.928;6.856;2022-11-15T14:19:48;5.70;;;2.57;;
5042;SDS011;2540;50.928;6.856;2022-11-15T14:22:15;7.60;;;3.13;;
5042;SDS011;2540;50.928;6.856;2022-11-15T14:24:41;14.70;;;5.80;;
5042;SDS011;2540;50.928;6.856;2022-11-15T14:29:41;12.43;;;4.60;;
5042;SDS011;2540;50.928;6.856;2022-11-15T14:32:16;19.43;;;4.50;;
5042;SDS011;2540;50.928;6.856;2022-11-15T14:34:42;10.83;;;4.03;;
5042;SDS011;2540;50.928;6.856;2022-11-15T14:37:27;12.30;;;5.67;;
5042;SDS011;2540;50.928;6.856;2022-11-15T14:39:52;7.90;;;4.63;;
5042;SDS011;2540;50.928;6.856;2022-11-15T14:42:18;9.07;;;4.20;;
5042;SDS011;2540;50.928;6.856;2022-11-15T14:44:43;13.03;;;5.33;;
5042;SDS011;2540;50.928;6.856;2022-11-15T14:47:09;11.83;;;5.47;;
5042;SDS011;2540;50.928;6.856;2022-11-15T14:49:34;13.50;;;5.93;;
5042;SDS011;2540;50.928;6.856;2022-11-15T14:51:59;13.47;;;5.77;;
5042;SDS011;2540;50.928;6.856;2022-11-15T14:54:24;14.33;;;6.30;;
5042;SDS011;2540;50.928;6.856;2022-11-15T14:56:49;17.63;;;6.07;;
5042;SDS011;2540;50.928;6.856;2022-11-15T14:59:14;10.77;;;4.70;;
5042;SDS011;2540;50.928;6.856;2022-11-15T15:01:40;11.03;;;5.20;;
5042;SDS011;2540;50.928;6.856;2022-11-15T15:04:05;10.73;;;4.70;;
5042;SDS011;2540;50.928;6.856;2022-11-15T15:06:30;8.80;;;3.43;;
5042;SDS011;2540;50.928;6.856;2022-11-15T15:08:55;10.00;;;4.30;;
5042;SDS011;2540;50.928;6.856;2022-11-15T15:11:21;9.93;;;4.33;;
5042;SDS011;2540;50.928;6.856;2022-11-15T15:13:47;10.70;;;3.47;;
5042;SDS011;2540;50.928;6.856;2022-11-15T15:16:12;6.90;;;4.20;;
5042;SDS011;2540;50.928;6.856;2022-11-15T15:18:38;10.50;;;3.70;;
5042;SDS011;2540;50.928;6.856;2022-11-15T15:21:04;11.00;;;3.57;;
5042;SDS011;2540;50.928;6.856;2022-11-15T15:23:39;7.70;;;4.20;;
5042;SDS011;2540;50.928;6.856;2022-11-15T15:26:04;12.50;;;3.83;;
5042;SDS011;2540;50.928;6.856;2022-11-15T15:28:29;8.87;;;3.60;;
5042;SDS011;2540;50.928;6.856;2022-11-15T15:30:54;7.50;;;3.50;;
5042;SDS011;2540;50.928;6.856;2022-11-15T15:33:19;7.57;;;3.40;;
5042;SDS011;2540;50.928;6.856;2022-11-15T15:35:45;7.50;;;4.00;;
5042;SDS011;2540;50.928;6.856;2022-11-15T15:38:13;6.33;;;3.13;;
5042;SDS011;2540;50.928;6.856;2022-11-15T15:40:40;6.23;;;3.20;;
5042;SDS011;2540;50.928;6.856;2022-11-15T15:43:05;5.30;;;3.27;;
5042;SDS011;2540;50.928;6.856;2022-11-15T15:45:33;2.60;;;1.97;;
5042;SDS011;2540;50.928;6.856;2022-11-15T15:47:59;7.60;;;3.20;;
5042;SDS011;2540;50.928;6.856;2022-11-15T15:50:32;5.00;;;3.23;;
5042;SDS011;2540;50.928;6.856;2022-11-15T15:52:58;2.97;;;2.00;;
5042;SDS011;2540;50.928;6.856;2022-11-15T15:55:24;5.90;;;2.87;;
5042;SDS011;2540;50.928;6.856;2022-11-15T15:57:49;8.10;;;3.73;;
5042;SDS011;2540;50.928;6.856;2022-11-15T16:00:15;6.70;;;3.03;;
5042;SDS011;2540;50.928;6.856;2022-11-15T16:02:41;5.30;;;2.50;;
5042;SDS011;2540;50.928;6.856;2022-11-15T16:05:06;5.80;;;2.40;;
5042;SDS011;2540;50.928;6.856;2022-11-15T16:07:31;2.87;;;1.90;;
5042;SDS011;2540;50.928;6.856;2022-11-15T16:09:57;1.50;;;1.40;;
5042;SDS011;2540;50.928;6.856;2022-11-15T16:12:32;5.50;;;2.60;;
5042;SDS011;2540;50.928;6.856;2022-11-15T16:14:57;4.77;;;2.80;;
5042;SDS011;2540;50.928;6.856;2022-11-15T16:17:24;6.83;;;3.63;;
5042;SDS011;2540;50.928;6.856;2022-11-15T16:19:50;12.33;;;4.57;;
5042;SDS011;2540;50.928;6.856;2022-11-15T16:22:15;12.80;;;3.60;;
5042;SDS011;2540;50.928;6.856;2022-11-15T16:24:40;10.00;;;4.17;;
5042;SDS011;2540;50.928;6.856;2022-11-15T16:27:05;9.70;;;4.40;;
5042;SDS011;2540;50.928;6.856;2022-11-15T16:29:30;8.50;;;3.60;;
5042;SDS011;2540;50.928;6.856;2022-11-15T16:31:56;5.20;;;3.53;;
5042;SDS011;2540;50.928;6.856;2022-11-15T16:34:21;9.27;;;4.30;;
5042;SDS011;2540;50.928;6.856;2022-11-15T16:36:46;5.60;;;2.70;;
5042;SDS011;2540;50.928;6.856;2022-11-15T16:39:12;6.57;;;3.20;;
5042;SDS011;2540;50.928;6.856;2022-11-15T16:41:42;5.50;;;3.00;;
5042;SDS011;2540;50.928;6.856;2022-11-15T16:44:11;7.50;;;4.10;;
5042;SDS011;2540;50.928;6.856;2022-11-15T16:46:36;7.20;;;3.40;;
5042;SDS011;2540;50.928;6.856;2022-11-15T16:49:02;5.40;;;2.83;;
5042;SDS011;2540;50.928;6.856;2022-11-15T16:51:28;4.70;;;3.27;;
5042;SDS011;2540;50.928;6.856;2022-11-15T16:53:53;10.30;;;4.70;;
5042;SDS011;2540;50.928;6.856;2022-11-15T16:56:21;15.03;;;5.10;;
5042;SDS011;2540;50.928;6.856;2022-11-15T16:58:46;11.27;;;3.97;;